createdAt,value
2018-12-19T00:00:26.208Z,15.63
2018-12-19T00:02:53.651Z,16.73
2018-12-19T00:05:21.143Z,16.30
2018-12-19T00:07:48.580Z,18.33
2018-12-19T00:10:16.058Z,18.13
2018-12-19T00:12:43.491Z,16.00
2018-12-19T00:15:10.947Z,16.30
2018-12-19T00:17:38.388Z,16.70
2018-12-19T00:20:06.554Z,19.50
2018-12-19T00:22:34.992Z,17.07
2018-12-19T00:25:02.632Z,17.50
2018-12-19T00:27:30.068Z,17.50
2018-12-19T00:29:57.582Z,16.83
2018-12-19T00:32:25.060Z,16.70
2018-12-19T00:34:52.516Z,17.70
2018-12-19T00:37:19.976Z,17.70
2018-12-19T00:39:47.428Z,17.57
2018-12-19T00:42:14.882Z,19.83
2018-12-19T00:44:42.339Z,18.43
2018-12-19T00:47:09.792Z,17.57
2018-12-19T00:49:37.258Z,17.60
2018-12-19T00:52:04.870Z,19.30
2018-12-19T00:54:32.306Z,19.70
2018-12-19T00:56:59.764Z,20.90
2018-12-19T00:59:27.211Z,18.00
2018-12-19T01:01:54.693Z,19.17
2018-12-19T01:04:22.129Z,18.60
2018-12-19T01:06:50.556Z,19.70
2018-12-19T01:09:18.006Z,19.27
2018-12-19T01:11:45.529Z,19.60
2018-12-19T01:14:13.021Z,19.20
2018-12-19T01:16:40.473Z,19.40
2018-12-19T01:19:07.934Z,18.20
2018-12-19T01:21:35.399Z,16.53
2018-12-19T01:24:04.781Z,17.70
2018-12-19T01:26:32.236Z,17.00
2018-12-19T01:28:59.695Z,17.33
2018-12-19T01:31:27.155Z,17.10
2018-12-19T01:33:54.710Z,16.77
2018-12-19T01:36:22.160Z,16.70
2018-12-19T01:38:49.603Z,16.37
2018-12-19T01:41:17.047Z,15.93
2018-12-19T01:43:44.491Z,17.17
2018-12-19T01:46:11.944Z,16.40
2018-12-19T01:48:39.392Z,16.63
2018-12-19T01:51:06.868Z,17.20
2018-12-19T01:53:34.311Z,16.27
2018-12-19T01:56:02.005Z,16.60
2018-12-19T01:58:29.442Z,16.07
2018-12-19T02:00:56.892Z,16.90
2018-12-19T02:03:24.364Z,16.33
2018-12-19T02:05:51.817Z,16.10
2018-12-19T02:08:19.321Z,17.43
2018-12-19T02:10:46.897Z,15.13
2018-12-19T02:13:14.328Z,16.27
2018-12-19T02:15:41.773Z,17.07
2018-12-19T02:18:09.215Z,17.20
2018-12-19T02:20:36.676Z,17.80
2018-12-19T02:23:04.198Z,15.63
2018-12-19T02:25:31.666Z,16.20
2018-12-19T02:27:59.118Z,16.37
2018-12-19T02:30:26.591Z,17.70
2018-12-19T02:32:54.042Z,16.50
2018-12-19T02:35:21.509Z,16.13
2018-12-19T02:37:49.045Z,15.93
2018-12-19T02:40:16.508Z,15.10
2018-12-19T02:42:43.945Z,16.50
2018-12-19T02:45:12.376Z,15.47
2018-12-19T02:47:39.820Z,17.47
2018-12-19T02:50:07.425Z,16.20
2018-12-19T02:52:34.880Z,14.97
2018-12-19T02:55:07.165Z,16.17
2018-12-19T02:57:34.629Z,15.60
2018-12-19T03:00:02.144Z,16.60
2018-12-19T03:02:29.600Z,14.87
2018-12-19T03:04:57.044Z,14.33
2018-12-19T03:07:28.233Z,13.87
2018-12-19T03:09:55.680Z,15.00
2018-12-19T03:12:23.138Z,16.33
2018-12-19T03:14:50.608Z,15.03
2018-12-19T03:17:18.064Z,14.33
2018-12-19T03:19:45.500Z,14.10
2018-12-19T03:22:12.951Z,14.20
2018-12-19T03:24:40.396Z,13.67
2018-12-19T03:27:09.752Z,14.70
2018-12-19T03:29:37.196Z,14.73
2018-12-19T03:32:04.669Z,15.53
2018-12-19T03:34:32.102Z,16.73
2018-12-19T03:36:59.585Z,16.10
2018-12-19T03:39:27.013Z,15.50
2018-12-19T03:41:54.473Z,17.63
2018-12-19T03:44:21.912Z,16.50
2018-12-19T03:46:49.368Z,18.13
2018-12-19T03:49:17.100Z,19.23
2018-12-19T03:51:44.613Z,20.97
2018-12-19T03:54:12.061Z,23.93
2018-12-19T03:56:39.780Z,18.03
2018-12-19T03:59:07.220Z,17.40
2018-12-19T04:01:34.677Z,16.83
2018-12-19T04:04:02.142Z,15.13
2018-12-19T04:06:29.590Z,15.50
2018-12-19T04:09:01.413Z,16.50
2018-12-19T04:11:28.878Z,15.80
2018-12-19T04:13:56.319Z,15.60
2018-12-19T04:16:23.806Z,16.00
2018-12-19T04:18:51.253Z,17.27
2018-12-19T04:21:18.772Z,14.97
2018-12-19T04:23:46.207Z,15.27
2018-12-19T04:26:13.681Z,16.27
2018-12-19T04:28:41.120Z,15.20
2018-12-19T04:31:08.593Z,14.73
2018-12-19T04:33:36.037Z,15.70
2018-12-19T04:36:03.943Z,15.43
2018-12-19T04:38:33.627Z,15.73
2018-12-19T04:41:01.156Z,16.40
2018-12-19T04:43:28.601Z,15.23
2018-12-19T04:45:56.109Z,16.20
2018-12-19T04:48:23.558Z,15.63
2018-12-19T04:50:51.006Z,15.93
2018-12-19T04:53:18.474Z,15.83
2018-12-19T04:55:45.917Z,15.27
2018-12-19T04:58:13.399Z,16.10
2018-12-19T05:00:40.876Z,16.03
2018-12-19T05:03:08.440Z,15.17
2018-12-19T05:05:35.873Z,15.70
2018-12-19T05:08:03.458Z,16.40
2018-12-19T05:10:30.897Z,16.83
2018-12-19T05:12:58.373Z,14.33
2018-12-19T05:15:25.818Z,15.17
2018-12-19T05:17:54.249Z,16.30
2018-12-19T05:20:21.725Z,14.83
2018-12-19T05:22:49.214Z,15.30
2018-12-19T05:25:16.654Z,22.10
2018-12-19T05:27:44.126Z,16.40
2018-12-19T05:30:11.588Z,14.47
2018-12-19T05:32:39.055Z,15.67
2018-12-19T05:35:07.006Z,15.40
2018-12-19T05:37:34.454Z,13.90
2018-12-19T05:40:01.901Z,14.10
2018-12-19T05:42:29.350Z,13.63
2018-12-19T05:44:56.784Z,13.10
2018-12-19T05:47:24.491Z,13.30
2018-12-19T05:49:52.080Z,13.03
2018-12-19T05:52:21.511Z,13.03
2018-12-19T05:54:49.115Z,13.17
2018-12-19T05:57:17.984Z,12.50
2018-12-19T05:59:45.508Z,12.83
2018-12-19T06:02:12.951Z,12.87
2018-12-19T06:04:40.388Z,12.97
2018-12-19T06:07:07.932Z,13.60
2018-12-19T06:09:35.387Z,11.63
2018-12-19T06:12:02.874Z,10.87
2018-12-19T06:14:30.362Z,14.40
2018-12-19T06:16:57.820Z,14.37
2018-12-19T06:19:25.268Z,12.80
2018-12-19T06:21:52.719Z,12.73
2018-12-19T06:24:22.151Z,13.53
2018-12-19T06:26:49.608Z,13.30
2018-12-19T06:29:17.076Z,13.17
2018-12-19T06:31:44.567Z,13.57
2018-12-19T06:34:12.067Z,12.80
2018-12-19T06:36:39.525Z,12.73
2018-12-19T06:39:07.119Z,13.73
2018-12-19T06:41:34.665Z,11.67
2018-12-19T06:44:02.152Z,10.83
2018-12-19T06:46:29.623Z,11.90
2018-12-19T06:48:57.062Z,12.20
2018-12-19T06:51:24.538Z,14.27
2018-12-19T06:53:52.044Z,12.60
2018-12-19T06:56:19.499Z,14.63
2018-12-19T06:58:47.040Z,19.10
2018-12-19T07:01:14.523Z,14.53
2018-12-19T07:03:42.000Z,12.77
2018-12-19T07:06:09.446Z,13.23
2018-12-19T07:08:36.907Z,15.13
2018-12-19T07:11:04.362Z,16.60
2018-12-19T07:13:31.901Z,18.00
2018-12-19T07:15:59.340Z,16.00
2018-12-19T07:18:26.801Z,15.57
2018-12-19T07:20:54.468Z,16.40
2018-12-19T07:23:21.977Z,15.70
2018-12-19T07:25:49.444Z,15.27
2018-12-19T07:28:16.919Z,15.57
2018-12-19T07:30:44.384Z,16.90
2018-12-19T07:33:13.810Z,14.80
2018-12-19T07:35:41.258Z,15.40
2018-12-19T07:38:08.726Z,15.40
2018-12-19T07:40:36.227Z,15.30
2018-12-19T07:43:03.809Z,14.90
2018-12-19T07:45:31.248Z,13.33
2018-12-19T07:47:58.723Z,12.97
2018-12-19T07:50:26.157Z,13.20
2018-12-19T07:52:53.873Z,12.67
2018-12-19T07:55:21.337Z,13.43
2018-12-19T07:57:48.795Z,13.40
2018-12-19T08:00:16.232Z,13.30
2018-12-19T08:02:43.711Z,14.77
2018-12-19T08:05:11.159Z,14.80
2018-12-19T08:07:38.617Z,14.57
2018-12-19T08:10:06.769Z,14.27
2018-12-19T08:12:36.165Z,15.67
2018-12-19T08:15:04.563Z,14.87
2018-12-19T08:17:32.181Z,14.10
2018-12-19T08:19:59.673Z,15.73
2018-12-19T08:22:27.139Z,15.43
2018-12-19T08:24:54.594Z,16.37
2018-12-19T08:27:22.058Z,15.73
2018-12-19T08:29:49.499Z,16.67
2018-12-19T08:32:16.961Z,15.67
2018-12-19T08:34:44.396Z,15.93
2018-12-19T08:37:11.867Z,15.40
2018-12-19T08:39:39.393Z,15.37
2018-12-19T08:42:06.836Z,15.87
2018-12-19T08:44:34.272Z,14.20
2018-12-19T08:47:03.718Z,15.13
2018-12-19T08:49:31.155Z,14.47
2018-12-19T08:51:58.633Z,17.40
2018-12-19T08:54:26.070Z,14.73
2018-12-19T08:56:53.598Z,16.13
2018-12-19T08:59:21.038Z,17.37
2018-12-19T09:01:48.510Z,17.57
2018-12-19T09:04:15.953Z,16.07
2018-12-19T09:06:43.396Z,16.93
2018-12-19T09:09:10.848Z,15.30
2018-12-19T09:11:38.301Z,15.20
2018-12-19T09:14:05.764Z,19.03
2018-12-19T09:16:33.221Z,16.87
2018-12-19T09:19:00.692Z,16.30
2018-12-19T09:21:28.196Z,16.70
2018-12-19T09:23:55.708Z,16.80
2018-12-19T09:26:23.182Z,17.63
2018-12-19T09:28:50.649Z,17.07
2018-12-19T09:31:18.096Z,15.87
2018-12-19T09:33:45.597Z,15.87
2018-12-19T09:36:13.045Z,16.73
2018-12-19T09:38:41.017Z,15.53
2018-12-19T09:41:12.284Z,17.00
2018-12-19T09:43:38.131Z,16.83
2018-12-19T09:46:05.601Z,16.43
2018-12-19T09:48:33.067Z,16.60
2018-12-19T09:51:02.448Z,17.60
2018-12-19T09:53:30.083Z,16.07
2018-12-19T09:55:57.581Z,15.10
2018-12-19T09:58:25.042Z,16.70
2018-12-19T10:00:52.522Z,17.10
2018-12-19T10:03:19.976Z,15.43
2018-12-19T10:05:47.425Z,16.40
2018-12-19T10:08:14.878Z,16.70
2018-12-19T10:10:44.256Z,16.20
2018-12-19T10:13:11.713Z,17.50
2018-12-19T10:15:39.163Z,18.37
2018-12-19T10:18:06.624Z,18.60
2018-12-19T10:20:34.128Z,16.97
2018-12-19T10:23:01.591Z,17.60
2018-12-19T10:25:29.036Z,19.10
2018-12-19T10:27:56.492Z,19.77
2018-12-19T10:30:24.003Z,18.20
2018-12-19T10:32:53.409Z,19.80
2018-12-19T10:35:25.460Z,20.27
2018-12-19T10:37:52.955Z,23.50
2018-12-19T10:40:20.397Z,21.97
2018-12-19T10:42:47.852Z,23.97
2018-12-19T10:45:15.300Z,25.27
2018-12-19T10:47:42.782Z,24.83
2018-12-19T10:50:10.322Z,22.03
2018-12-19T10:52:37.785Z,20.43
2018-12-19T10:55:05.640Z,20.27
2018-12-19T10:57:34.042Z,21.77
2018-12-19T11:00:01.522Z,20.17
2018-12-19T11:02:28.989Z,19.70
2018-12-19T11:04:56.453Z,20.20
2018-12-19T11:07:23.928Z,20.40
2018-12-19T11:09:51.375Z,22.17
2018-12-19T11:12:18.841Z,22.67
2018-12-19T11:14:46.307Z,21.00
2018-12-19T11:17:13.828Z,22.50
2018-12-19T11:19:41.295Z,22.27
2018-12-19T11:22:09.992Z,24.87
2018-12-19T11:24:37.589Z,22.73
2018-12-19T11:27:05.153Z,20.40
2018-12-19T11:29:34.595Z,23.70
2018-12-19T11:32:02.132Z,23.50
2018-12-19T11:34:29.568Z,23.80
2018-12-19T11:36:57.066Z,24.40
2018-12-19T11:39:24.569Z,23.97
2018-12-19T11:41:52.024Z,30.23
2018-12-19T11:44:19.472Z,24.60
2018-12-19T11:46:46.940Z,23.57
2018-12-19T11:49:14.398Z,23.10
2018-12-19T11:51:41.858Z,21.90
2018-12-19T11:54:09.373Z,20.97
2018-12-19T11:56:36.830Z,22.93
2018-12-19T11:59:04.328Z,24.07
2018-12-19T12:01:31.769Z,23.07
2018-12-19T12:03:59.252Z,22.90
2018-12-19T12:06:26.705Z,23.63
2018-12-19T12:08:54.148Z,23.87
2018-12-19T12:11:21.606Z,22.73
2018-12-19T12:13:49.064Z,24.03
2018-12-19T12:16:16.508Z,24.47
2018-12-19T12:18:43.964Z,24.30
2018-12-19T12:21:11.408Z,24.23
2018-12-19T12:23:47.143Z,24.67
2018-12-19T12:26:10.258Z,26.10
2018-12-19T12:28:37.712Z,25.40
2018-12-19T12:31:05.308Z,25.20
2018-12-19T12:33:32.780Z,30.93
2018-12-19T12:36:00.477Z,25.87
2018-12-19T12:38:33.904Z,26.40
2018-12-19T12:40:57.386Z,26.23
2018-12-19T12:43:24.855Z,27.10
2018-12-19T12:45:52.295Z,27.27
2018-12-19T12:48:19.774Z,28.87
2018-12-19T12:50:47.227Z,27.50
2018-12-19T12:53:16.087Z,26.67
2018-12-19T12:55:43.720Z,26.27
2018-12-19T12:58:11.191Z,26.53
2018-12-19T13:00:38.628Z,27.47
2018-12-19T13:03:06.094Z,27.10
2018-12-19T13:05:33.524Z,27.60
2018-12-19T13:08:02.906Z,27.40
2018-12-19T13:10:36.105Z,27.73
2018-12-19T13:12:59.805Z,27.70
2018-12-19T13:15:33.687Z,27.73
2018-12-19T13:18:01.592Z,26.43
2018-12-19T13:20:31.046Z,25.00
2018-12-19T13:23:02.810Z,25.30
2018-12-19T13:25:35.585Z,27.57
2018-12-19T13:28:04.078Z,28.73
2018-12-19T13:30:31.539Z,29.00
2018-12-19T13:32:59.470Z,29.73
2018-12-19T13:35:27.736Z,27.70
2018-12-19T13:37:55.196Z,28.20
2018-12-19T13:40:22.648Z,29.10
2018-12-19T13:42:50.103Z,28.07
2018-12-19T13:45:17.557Z,28.20
2018-12-19T13:47:44.995Z,28.83
2018-12-19T13:50:12.500Z,28.10
2018-12-19T13:52:39.960Z,31.40
2018-12-19T13:55:07.480Z,27.97
2018-12-19T13:57:34.922Z,29.90
2018-12-19T14:00:02.376Z,28.50
2018-12-19T14:02:30.804Z,28.33
2018-12-19T14:04:58.264Z,31.13
2018-12-19T14:07:25.700Z,28.70
2018-12-19T14:09:55.129Z,29.90
2018-12-19T14:12:22.596Z,28.50
2018-12-19T14:14:50.039Z,32.33
2018-12-19T14:17:17.483Z,31.10
2018-12-19T14:19:44.943Z,30.80
2018-12-19T14:22:12.381Z,28.80
2018-12-19T14:24:42.096Z,30.43
2018-12-19T14:27:09.660Z,30.20
2018-12-19T14:29:37.210Z,30.77
2018-12-19T14:32:04.658Z,31.03
2018-12-19T14:34:32.127Z,30.43
2018-12-19T14:36:59.617Z,31.63
2018-12-19T14:39:27.181Z,31.10
2018-12-19T14:41:54.622Z,30.57
2018-12-19T14:44:24.044Z,32.27
2018-12-19T14:46:51.498Z,34.20
2018-12-19T14:49:19.021Z,34.23
2018-12-19T14:51:46.463Z,32.87
2018-12-19T14:54:13.922Z,33.50
2018-12-19T14:56:42.341Z,37.57
2018-12-19T14:59:09.846Z,35.57
2018-12-19T15:01:37.350Z,34.07
2018-12-19T15:04:04.852Z,35.33
2018-12-19T15:06:32.297Z,33.57
2018-12-19T15:08:59.768Z,31.13
2018-12-19T15:11:27.212Z,32.30
2018-12-19T15:13:54.746Z,31.10
2018-12-19T15:16:22.191Z,30.97
2018-12-19T15:18:49.654Z,30.80
2018-12-19T15:21:17.162Z,28.93
2018-12-19T15:23:44.629Z,30.97
2018-12-19T15:26:12.056Z,27.90
2018-12-19T15:28:39.534Z,29.57
2018-12-19T15:31:06.964Z,25.80
2018-12-19T15:33:34.430Z,26.90
2018-12-19T15:36:02.222Z,29.23
2018-12-19T15:38:29.676Z,28.43
2018-12-19T15:40:57.136Z,25.63
2018-12-19T15:43:24.593Z,32.17
2018-12-19T15:45:52.044Z,29.67
2018-12-19T15:48:20.559Z,27.37
2018-12-19T15:50:48.064Z,28.90
2018-12-19T15:53:15.530Z,28.53
2018-12-19T15:55:43.022Z,28.40
2018-12-19T15:58:10.467Z,28.10
2018-12-19T16:00:42.584Z,27.70
2018-12-19T16:03:10.034Z,32.10
2018-12-19T16:05:37.490Z,31.53
2018-12-19T16:08:04.955Z,30.70
2018-12-19T16:10:32.407Z,30.47
2018-12-19T16:12:59.842Z,33.10
2018-12-19T16:15:27.756Z,32.10
2018-12-19T16:17:57.133Z,32.13
2018-12-19T16:20:24.625Z,32.70
2018-12-19T16:22:52.075Z,31.60
2018-12-19T16:25:19.540Z,32.30
2018-12-19T16:27:46.990Z,32.80
2018-12-19T16:30:14.450Z,31.17
2018-12-19T16:32:41.906Z,33.90
2018-12-19T16:35:09.367Z,32.17
2018-12-19T16:37:36.792Z,31.10
2018-12-19T16:42:57.758Z,30.20
2018-12-19T16:45:25.244Z,30.00
2018-12-19T16:47:52.698Z,31.67
2018-12-19T16:50:20.167Z,30.27
2018-12-19T16:52:47.618Z,31.00
2018-12-19T16:55:15.077Z,37.07
2018-12-19T16:57:42.508Z,35.50
2018-12-19T17:00:10.191Z,36.13
2018-12-19T17:02:37.676Z,35.87
2018-12-19T17:05:06.143Z,35.20
2018-12-19T17:07:33.572Z,34.80
2018-12-19T17:10:01.058Z,36.00
2018-12-19T17:12:28.501Z,40.47
2018-12-19T17:14:55.941Z,34.97
2018-12-19T17:17:23.390Z,33.00
2018-12-19T17:19:50.839Z,34.60
2018-12-19T17:22:18.306Z,34.57
2018-12-19T17:24:45.778Z,32.97
2018-12-19T17:27:13.216Z,33.87
2018-12-19T17:29:40.687Z,34.17
2018-12-19T17:32:08.268Z,32.33
2018-12-19T17:34:35.720Z,32.30
2018-12-19T17:37:03.193Z,32.20
2018-12-19T17:39:30.648Z,33.80
2018-12-19T17:41:58.079Z,38.07
2018-12-19T17:44:25.551Z,42.30
2018-12-19T17:46:52.980Z,38.60
2018-12-19T17:49:20.445Z,36.87
2018-12-19T17:51:47.880Z,38.50
2018-12-19T17:54:15.346Z,35.93
2018-12-19T17:56:42.816Z,39.70
2018-12-19T17:59:12.196Z,35.10
2018-12-19T18:01:39.718Z,34.87
2018-12-19T18:04:08.238Z,51.20
2018-12-19T18:06:39.981Z,50.93
2018-12-19T18:09:10.709Z,50.50
2018-12-19T18:11:38.156Z,68.87
2018-12-19T18:14:05.868Z,71.97
2018-12-19T18:16:33.330Z,58.87
2018-12-19T18:19:04.693Z,60.07
2018-12-19T18:21:32.336Z,49.00
2018-12-19T18:23:59.788Z,37.20
2018-12-19T18:26:29.171Z,39.53
2018-12-19T18:28:56.620Z,39.33
2018-12-19T18:31:24.055Z,36.30
2018-12-19T18:33:51.537Z,34.93
2018-12-19T18:36:18.967Z,33.57
2018-12-19T18:38:46.458Z,34.47
2018-12-19T18:41:14.010Z,34.87
2018-12-19T18:43:41.523Z,35.10
2018-12-19T18:46:08.979Z,32.97
2018-12-19T18:48:36.442Z,34.57
2018-12-19T18:51:04.150Z,31.10
2018-12-19T18:53:32.749Z,29.57
2018-12-19T18:56:00.203Z,31.90
2018-12-19T18:58:27.673Z,30.50
2018-12-19T19:00:55.184Z,27.53
2018-12-19T19:03:22.684Z,28.27
2018-12-19T19:05:50.214Z,28.00
2018-12-19T19:08:17.681Z,27.27
2018-12-19T19:10:45.204Z,27.17
2018-12-19T19:13:12.639Z,23.90
2018-12-19T19:15:40.115Z,23.97
2018-12-19T19:18:07.566Z,22.70
2018-12-19T19:20:35.012Z,22.27
2018-12-19T19:23:02.460Z,22.67
2018-12-19T19:25:29.916Z,20.93
2018-12-19T19:27:59.365Z,20.90
2018-12-19T19:30:26.839Z,19.73
2018-12-19T19:32:54.289Z,19.17
2018-12-19T19:35:21.736Z,20.47
2018-12-19T19:37:49.205Z,21.13
2018-12-19T19:40:16.675Z,21.50
2018-12-19T19:42:44.108Z,22.00
2018-12-19T19:45:11.577Z,22.13
2018-12-19T19:47:39.008Z,19.80
2018-12-19T19:50:06.576Z,17.87
2018-12-19T19:52:34.026Z,25.60
2018-12-19T19:55:02.434Z,19.30
2018-12-19T19:57:29.911Z,18.43
2018-12-19T19:59:57.466Z,17.57
2018-12-19T20:02:24.992Z,19.50
2018-12-19T20:04:52.527Z,20.53
2018-12-19T20:07:19.995Z,19.90
2018-12-19T20:09:47.432Z,18.20
2018-12-19T20:12:14.958Z,19.87
2018-12-19T20:14:42.424Z,23.07
2018-12-19T20:17:11.914Z,24.93
2018-12-19T20:19:39.348Z,22.20
2018-12-19T20:22:06.833Z,18.83
2018-12-19T20:24:34.273Z,18.57
2018-12-19T20:27:01.720Z,17.00
2018-12-19T20:29:29.164Z,17.30
2018-12-19T20:31:57.578Z,16.87
2018-12-19T20:34:25.015Z,16.00
2018-12-19T20:36:52.490Z,16.00
2018-12-19T20:39:19.944Z,15.70
2018-12-19T20:41:47.396Z,15.97
2018-12-19T20:44:14.833Z,14.57
2018-12-19T20:46:42.312Z,13.77
2018-12-19T20:49:09.760Z,14.93
2018-12-19T20:51:37.264Z,14.70
2018-12-19T20:54:04.726Z,16.00
2018-12-19T20:56:32.213Z,14.23
2018-12-19T20:58:59.756Z,15.90
2018-12-19T21:01:27.226Z,14.60
2018-12-19T21:03:54.679Z,14.30
2018-12-19T21:06:22.128Z,13.17
2018-12-19T21:08:49.566Z,14.40
2018-12-19T21:11:20.283Z,13.90
2018-12-19T21:13:47.717Z,13.43
2018-12-19T21:16:15.204Z,14.10
2018-12-19T21:18:46.625Z,14.50
2018-12-19T21:21:18.061Z,14.00
2018-12-19T21:23:45.506Z,13.93
2018-12-19T21:26:12.989Z,13.90
2018-12-19T21:28:40.430Z,14.30
2018-12-19T21:31:07.910Z,17.87
2018-12-19T21:33:35.361Z,13.50
2018-12-19T21:36:04.002Z,14.73
2018-12-19T21:38:31.533Z,14.07
2018-12-19T21:40:59.064Z,14.67
2018-12-19T21:43:26.592Z,16.50
2018-12-19T21:45:54.171Z,16.87
2018-12-19T21:48:21.674Z,16.60
2018-12-19T21:50:50.038Z,15.77
2018-12-19T21:53:17.555Z,15.20
2018-12-19T21:55:45.071Z,14.53
2018-12-19T21:58:12.560Z,14.67
2018-12-19T22:00:40.251Z,14.20
2018-12-19T22:03:07.288Z,15.07
2018-12-19T22:05:35.120Z,13.93
2018-12-19T22:08:02.610Z,14.37
2018-12-19T22:10:30.120Z,15.00
2018-12-19T22:12:57.582Z,13.93
2018-12-19T22:15:25.029Z,13.17
2018-12-19T22:17:54.547Z,12.90
2018-12-19T22:20:21.978Z,14.53
2018-12-19T22:22:49.500Z,14.90
2018-12-19T22:25:16.932Z,15.03
2018-12-19T22:27:44.375Z,16.57
2018-12-19T22:30:11.872Z,15.20
2018-12-19T22:32:39.452Z,14.20
2018-12-19T22:35:06.953Z,14.33
2018-12-19T22:37:34.422Z,16.80
2018-12-19T22:40:02.004Z,12.83
2018-12-19T22:42:29.471Z,13.53
2018-12-19T22:44:57.032Z,12.43
2018-12-19T22:47:24.552Z,12.83
2018-12-19T22:49:52.089Z,13.13
2018-12-19T22:52:19.811Z,12.30
2018-12-19T22:54:47.433Z,14.37
2018-12-19T22:57:14.897Z,14.30
2018-12-19T22:59:42.419Z,12.60
2018-12-19T23:02:15.640Z,13.33
2018-12-19T23:04:43.106Z,14.30
2018-12-19T23:07:10.559Z,13.40
2018-12-19T23:09:38.031Z,13.70
2018-12-19T23:12:05.552Z,12.40
2018-12-19T23:14:32.989Z,13.10
2018-12-19T23:17:02.457Z,14.63
2018-12-19T23:19:29.983Z,14.00
2018-12-19T23:21:57.431Z,14.40
2018-12-19T23:24:24.885Z,14.23
2018-12-19T23:26:52.459Z,15.87
2018-12-19T23:29:20.006Z,14.90
2018-12-19T23:31:47.574Z,13.90
2018-12-19T23:34:15.094Z,14.23
2018-12-19T23:36:42.650Z,13.30
2018-12-19T23:39:10.186Z,13.70
2018-12-19T23:41:37.701Z,12.23
2018-12-19T23:44:05.156Z,13.07
2018-12-19T23:46:34.277Z,13.80
2018-12-19T23:49:01.713Z,15.37
2018-12-19T23:51:29.692Z,15.97
2018-12-19T23:53:57.148Z,18.53
2018-12-19T23:56:24.587Z,16.17
2018-12-19T23:58:52.204Z,17.70
